Time;durP1;ratioP1;P1;durP2;ratioP2;P2;SDS_P1;SDS_P2;PMS_P1;PMS_P2;Temp;Humidity;BMP_temperature;BMP_pressure;BME280_temperature;BME280_humidity;BME280_pressure;Samples;Min_cycle;Max_cycle;Signal;HPM_P1;HPM_P2
2022/11/10 00:02:17;;;;;;;16.90;8.13;;;15.90;73.10;;;;;;6246548;28;20049;-74
2022/11/10 00:05:38;;;;;;;14.48;7.78;;;16.00;73.00;;;;;;6235049;28;20033;-74
2022/11/10 00:08:57;;;;;;;16.25;8.20;;;16.00;72.80;;;;;;6228019;28;20050;-74
2022/11/10 00:12:17;;;;;;;16.17;9.32;;;16.10;72.70;;;;;;6231275;28;20034;-74
2022/11/10 00:19:16;;;;;;;18.27;9.23;;;16.20;72.50;;;;;;6247787;28;20038;-74
2022/11/10 00:22:37;;;;;;;20.13;9.57;;;16.20;72.40;;;;;;6233545;28;20528;-74
2022/11/10 00:25:57;;;;;;;18.02;9.25;;;16.10;72.40;;;;;;6224204;28;20050;-74
2022/11/10 00:29:17;;;;;;;20.73;8.45;;;16.10;72.50;;;;;;6255912;28;20033;-74
2022/11/10 00:32:36;;;;;;;17.33;9.45;;;16.00;72.30;;;;;;6235467;28;20048;-74
2022/11/10 00:35:59;;;;;;;16.00;8.63;;;15.90;72.40;;;;;;6238051;28;20034;-74
2022/11/10 00:39:18;;;;;;;12.98;7.60;;;15.90;72.50;;;;;;6250365;28;20045;-75
2022/11/10 00:42:38;;;;;;;15.77;8.20;;;15.90;72.60;;;;;;6229260;28;20068;-74
2022/11/10 00:45:57;;;;;;;15.95;8.50;;;15.80;72.70;;;;;;6256811;28;20462;-74
2022/11/10 00:49:17;;;;;;;16.05;8.50;;;15.80;72.70;;;;;;6249975;28;20427;-74
2022/11/10 00:52:37;;;;;;;13.55;7.45;;;15.70;72.70;;;;;;6254907;28;20029;-74
2022/11/10 00:55:57;;;;;;;14.43;7.68;;;15.70;72.70;;;;;;6233475;28;20053;-74
2022/11/10 00:59:16;;;;;;;10.75;6.68;;;15.70;72.80;;;;;;6219023;28;20053;-74
2022/11/10 01:02:36;;;;;;;13.30;6.55;;;15.70;72.70;;;;;;6245126;28;20448;-74
2022/11/10 01:05:55;;;;;;;18.38;6.75;;;15.70;72.70;;;;;;6239115;28;20145;-74
2022/11/10 01:09:15;;;;;;;9.43;6.07;;;15.80;72.70;;;;;;6230681;28;20375;-74
2022/11/10 01:12:34;;;;;;;11.77;5.90;;;15.80;72.60;;;;;;6251178;28;20069;-74
2022/11/10 01:15:54;;;;;;;9.68;5.10;;;15.80;72.40;;;;;;6252176;28;20033;-74
2022/11/10 01:19:13;;;;;;;9.35;5.15;;;15.90;72.30;;;;;;6253070;28;20045;-74
2022/11/10 01:22:34;;;;;;;9.65;5.25;;;16.00;72.20;;;;;;6231846;28;20041;-74
2022/11/10 01:26:01;;;;;;;10.52;6.05;;;16.00;72.00;;;;;;6250552;28;20037;-74
2022/11/10 01:29:21;;;;;;;12.57;6.38;;;16.00;72.00;;;;;;6238203;28;20041;-73
2022/11/10 01:32:40;;;;;;;11.10;6.28;;;16.00;71.80;;;;;;6247371;28;20037;-74
2022/11/10 01:36:00;;;;;;;11.50;5.75;;;16.10;71.70;;;;;;6249161;28;20058;-74
2022/11/10 01:39:20;;;;;;;9.07;5.30;;;16.10;71.60;;;;;;6245768;28;20049;-74
2022/11/10 01:42:49;;;;;;;13.27;6.60;;;16.10;71.50;;;;;;6235827;28;20046;-74
2022/11/10 01:46:09;;;;;;;12.93;6.72;;;16.20;71.50;;;;;;6251490;28;20335;-74
2022/11/10 01:49:31;;;;;;;12.60;5.57;;;16.20;71.40;;;;;;6250043;28;20025;-74
2022/11/10 01:52:56;;;;;;;11.98;5.78;;;16.20;71.10;;;;;;6233234;28;20045;-74
2022/11/10 01:56:17;;;;;;;10.35;6.10;;;16.20;71.10;;;;;;6250471;28;20041;-74
2022/11/10 01:59:42;;;;;;;10.23;5.82;;;16.20;71.00;;;;;;6253440;28;20046;-74
2022/11/10 02:03:31;;;;;;;14.30;6.68;;;16.20;70.90;;;;;;6242154;28;20042;-74
2022/11/10 02:06:51;;;;;;;11.57;6.22;;;16.20;70.90;;;;;;6244195;28;20045;-75
2022/11/10 02:10:16;;;;;;;11.95;6.38;;;16.20;70.70;;;;;;6236347;28;20443;-75
2022/11/10 02:13:36;;;;;;;9.65;5.90;;;16.10;70.50;;;;;;6246049;28;20041;-74
2022/11/10 02:16:56;;;;;;;10.13;5.32;;;16.10;70.50;;;;;;6209556;28;20041;-74
2022/11/10 02:20:18;;;;;;;15.27;6.30;;;16.00;70.50;;;;;;6236251;28;20041;-75
2022/11/10 02:23:38;;;;;;;10.18;5.80;;;16.00;70.60;;;;;;6248274;28;20044;-75
2022/11/10 02:26:57;;;;;;;8.93;5.82;;;15.90;70.60;;;;;;6230289;28;20037;-74
2022/11/10 02:30:17;;;;;;;11.40;5.75;;;15.90;70.70;;;;;;6241524;28;20045;-74
2022/11/10 02:33:36;;;;;;;10.30;5.90;;;15.80;70.80;;;;;;6231143;28;20049;-74
2022/11/10 02:36:56;;;;;;;8.98;5.68;;;15.80;70.90;;;;;;6249052;28;20041;-74
2022/11/10 02:40:16;;;;;;;7.85;4.78;;;15.70;70.90;;;;;;6249850;28;20041;-74
2022/11/10 02:43:36;;;;;;;10.48;5.63;;;15.70;70.90;;;;;;6237955;28;20067;-74
2022/11/10 02:46:56;;;;;;;10.77;5.95;;;15.60;71.80;;;;;;6229369;28;20045;-74
2022/11/10 02:50:17;;;;;;;12.82;6.25;;;15.60;71.00;;;;;;6233095;28;20409;-74
2022/11/10 02:53:36;;;;;;;11.88;5.88;;;15.60;71.00;;;;;;6235522;28;20041;-74
2022/11/10 02:56:55;;;;;;;10.43;5.32;;;15.60;71.00;;;;;;6238951;28;20120;-74
2022/11/10 03:00:15;;;;;;;9.95;5.55;;;15.50;71.00;;;;;;6254700;28;20040;-74
2022/11/10 03:03:34;;;;;;;11.75;5.70;;;15.60;71.10;;;;;;6231100;28;20049;-74
2022/11/10 03:06:54;;;;;;;13.10;6.03;;;15.60;71.10;;;;;;6208644;28;20061;-75
2022/11/10 03:10:13;;;;;;;10.35;4.97;;;15.50;71.00;;;;;;6249373;28;20045;-75
2022/11/10 03:13:33;;;;;;;10.80;5.53;;;15.60;71.00;;;;;;6245296;28;20042;-74
2022/11/10 03:16:53;;;;;;;8.90;5.50;;;15.60;70.90;;;;;;6245875;28;20050;-74
2022/11/10 03:20:13;;;;;;;8.70;4.65;;;15.60;70.80;;;;;;6235074;28;20037;-74
2022/11/10 03:23:33;;;;;;;11.05;5.45;;;15.50;70.70;;;;;;6237555;28;20037;-74
2022/11/10 03:26:53;;;;;;;8.38;5.38;;;15.50;70.80;;;;;;6252271;28;20037;-75
2022/11/10 03:30:12;;;;;;;9.50;5.60;;;15.50;70.80;;;;;;6249074;28;20041;-74
2022/11/10 03:33:32;;;;;;;13.38;6.25;;;15.40;70.80;;;;;;6247837;28;20037;-74
2022/11/10 03:36:51;;;;;;;10.63;5.45;;;15.40;70.90;;;;;;6232504;28;20052;-75
2022/11/10 03:40:11;;;;;;;13.52;6.43;;;15.40;70.90;;;;;;6247873;28;20445;-75
2022/11/10 03:43:30;;;;;;;10.00;6.03;;;15.30;71.00;;;;;;6250968;28;20037;-74
2022/11/10 03:46:50;;;;;;;14.25;6.32;;;15.30;71.00;;;;;;6248589;28;20455;-74
2022/11/10 03:50:10;;;;;;;15.63;6.28;;;15.30;71.00;;;;;;6235413;28;20405;-74
2022/11/10 03:53:29;;;;;;;13.70;6.40;;;15.30;71.90;;;;;;6250737;28;20033;-74
2022/11/10 03:56:49;;;;;;;16.05;7.00;;;15.20;71.10;;;;;;6251083;28;20112;-74
2022/11/10 04:00:10;;;;;;;12.82;6.57;;;15.20;71.20;;;;;;6257927;28;20124;-74
2022/11/10 04:03:31;;;;;;;11.30;6.90;;;15.20;71.20;;;;;;6233466;28;20064;-75
2022/11/10 04:10:28;;;;;;;12.85;7.15;;;15.20;71.40;;;;;;6254032;28;20071;-75
2022/11/10 04:17:26;;;;;;;13.27;6.53;;;15.20;71.40;;;;;;6251615;28;20049;-74
2022/11/10 04:20:47;;;;;;;11.05;5.68;;;15.20;71.40;;;;;;6242589;28;20069;-75
2022/11/10 04:24:07;;;;;;;13.75;6.47;;;15.20;71.40;;;;;;6256585;28;20076;-75
2022/11/10 04:27:27;;;;;;;20.77;6.43;;;15.30;71.40;;;;;;6229035;28;20120;-74
2022/11/10 04:30:46;;;;;;;11.25;6.25;;;15.30;71.30;;;;;;6243483;28;20041;-75
2022/11/10 04:34:08;;;;;;;11.48;6.57;;;15.30;71.20;;;;;;6239541;28;20474;-74
2022/11/10 04:37:27;;;;;;;12.65;6.30;;;15.40;71.10;;;;;;6252316;28;20042;-75
2022/11/10 04:40:47;;;;;;;10.18;5.78;;;15.40;71.10;;;;;;6256811;28;20128;-74
2022/11/10 04:44:07;;;;;;;10.85;5.22;;;15.40;71.00;;;;;;6239401;28;20045;-74
2022/11/10 04:47:26;;;;;;;7.47;4.68;;;15.40;71.10;;;;;;6239990;28;20029;-74
2022/11/10 04:50:45;;;;;;;8.63;4.40;;;15.40;71.10;;;;;;6240496;28;20378;-75
2022/11/10 04:54:06;;;;;;;10.60;5.43;;;15.40;71.10;;;;;;6233927;28;20038;-75
2022/11/10 04:57:26;;;;;;;7.00;4.15;;;15.40;71.10;;;;;;6249236;28;20033;-74
2022/11/10 05:00:46;;;;;;;11.95;4.60;;;15.40;71.10;;;;;;6254473;28;20033;-75
2022/11/10 05:04:05;;;;;;;6.93;3.95;;;15.50;71.10;;;;;;6235755;28;20037;-75
2022/11/10 05:07:25;;;;;;;7.40;4.72;;;15.50;71.00;;;;;;6253971;28;20128;-75
2022/11/10 05:10:44;;;;;;;8.55;4.45;;;15.50;71.00;;;;;;6245814;28;20045;-76
2022/11/10 05:14:04;;;;;;;8.57;4.18;;;15.50;70.90;;;;;;6252054;28;20076;-75
2022/11/10 05:17:23;;;;;;;9.93;4.65;;;15.50;70.90;;;;;;6243989;28;20466;-75
2022/11/10 05:20:43;;;;;;;7.85;4.72;;;15.50;70.90;;;;;;6257823;28;20034;-74
2022/11/10 05:24:02;;;;;;;15.65;5.10;;;15.60;70.90;;;;;;6236794;28;20450;-74
2022/11/10 05:27:22;;;;;;;11.80;5.38;;;15.70;70.80;;;;;;6234924;28;20045;-74
2022/11/10 05:30:42;;;;;;;9.13;5.45;;;15.70;70.70;;;;;;6240567;28;20056;-74
2022/11/10 05:34:02;;;;;;;8.52;5.10;;;15.70;70.60;;;;;;6248482;28;20522;-74
2022/11/10 05:37:22;;;;;;;8.15;4.75;;;15.70;70.50;;;;;;6242376;28;20045;-74
2022/11/10 05:40:41;;;;;;;7.35;4.43;;;15.70;70.40;;;;;;6252195;28;20475;-74
2022/11/10 05:44:01;;;;;;;8.65;4.38;;;15.70;70.30;;;;;;6238773;28;20497;-74
2022/11/10 05:47:20;;;;;;;7.53;4.45;;;15.70;70.20;;;;;;6253938;28;20375;-74
2022/11/10 05:50:40;;;;;;;6.90;4.13;;;15.70;70.20;;;;;;6235420;28;20049;-74
2022/11/10 05:54:00;;;;;;;10.70;4.45;;;15.70;70.10;;;;;;6252351;28;20455;-73
2022/11/10 05:57:19;;;;;;;8.32;4.43;;;15.70;70.10;;;;;;6233505;28;20036;-74
2022/11/10 06:00:39;;;;;;;8.57;4.75;;;15.70;70.00;;;;;;6247387;28;20473;-74
2022/11/10 06:03:59;;;;;;;7.30;4.22;;;15.70;69.90;;;;;;6246061;28;20056;-74
2022/11/10 06:07:18;;;;;;;9.15;4.20;;;15.70;69.70;;;;;;6240214;28;20041;-75
2022/11/10 06:10:38;;;;;;;8.13;4.45;;;15.70;69.60;;;;;;6237484;28;20132;-74
2022/11/10 06:13:59;;;;;;;9.18;5.55;;;15.70;69.60;;;;;;6240494;28;20037;-74
2022/11/10 06:17:19;;;;;;;11.60;4.90;;;15.70;70.40;;;;;;6234912;28;20042;-74
2022/11/10 06:20:38;;;;;;;9.88;5.40;;;15.70;69.60;;;;;;6249356;28;20451;-74
2022/11/10 06:23:57;;;;;;;7.82;4.97;;;15.70;69.60;;;;;;6238107;28;20951;-74
2022/11/10 06:27:17;;;;;;;7.85;5.43;;;15.70;69.50;;;;;;6251545;28;20045;-75
2022/11/10 06:30:37;;;;;;;10.88;5.82;;;15.70;69.50;;;;;;6234535;28;20045;-75
2022/11/10 06:33:57;;;;;;;9.35;4.85;;;15.70;69.40;;;;;;6250957;28;20385;-75
2022/11/10 06:37:16;;;;;;;9.23;5.45;;;15.70;69.30;;;;;;6245977;28;20033;-75
2022/11/10 06:40:36;;;;;;;10.20;5.15;;;15.70;69.30;;;;;;6250445;28;20045;-75
2022/11/10 06:43:56;;;;;;;10.38;5.50;;;15.70;69.30;;;;;;6237448;28;20041;-75
2022/11/10 06:47:16;;;;;;;10.43;5.28;;;15.70;69.30;;;;;;6250434;28;20053;-75
2022/11/10 06:50:36;;;;;;;13.60;5.30;;;15.70;69.30;;;;;;6251515;28;20442;-75
2022/11/10 06:53:55;;;;;;;9.98;5.78;;;15.70;69.20;;;;;;6253816;28;20410;-75
2022/11/10 06:57:15;;;;;;;10.85;5.20;;;15.70;69.20;;;;;;6248606;28;20461;-75
2022/11/10 07:00:35;;;;;;;8.85;4.93;;;15.80;69.20;;;;;;6247331;28;20382;-74
2022/11/10 07:03:54;;;;;;;10.23;5.18;;;15.80;69.10;;;;;;6230760;28;20378;-74
2022/11/10 07:07:14;;;;;;;11.02;4.82;;;15.80;69.00;;;;;;6234321;28;20041;-75
2022/11/10 07:10:34;;;;;;;7.22;4.50;;;15.80;68.90;;;;;;6248569;28;20049;-74
2022/11/10 07:13:54;;;;;;;9.40;5.07;;;15.80;68.90;;;;;;6253000;28;20430;-75
2022/11/10 07:17:14;;;;;;;11.23;5.00;;;15.70;68.80;;;;;;6252298;28;20040;-75
2022/11/10 07:20:34;;;;;;;10.57;5.85;;;15.60;68.80;;;;;;6247411;28;20051;-75
2022/11/10 07:23:53;;;;;;;9.57;5.05;;;15.60;68.80;;;;;;6244372;28;20052;-75
2022/11/10 07:27:13;;;;;;;9.57;5.35;;;15.60;68.80;;;;;;6248624;28;20037;-75
2022/11/10 07:30:34;;;;;;;10.10;5.75;;;15.60;68.90;;;;;;6247014;28;20048;-76
2022/11/10 07:33:53;;;;;;;12.15;5.38;;;15.60;68.90;;;;;;6246866;28;20052;-74
2022/11/10 07:37:13;;;;;;;8.77;5.25;;;15.60;68.90;;;;;;6229193;28;20045;-75
2022/11/10 07:40:32;;;;;;;12.63;5.30;;;15.70;68.80;;;;;;6234866;28;20057;-74
2022/11/10 07:43:52;;;;;;;9.98;5.15;;;15.70;68.70;;;;;;6234420;28;20049;-75
2022/11/10 07:47:11;;;;;;;10.25;5.10;;;15.70;68.70;;;;;;6250166;28;20120;-74
2022/11/10 07:50:35;;;;;;;14.85;6.07;;;15.70;68.70;;;;;;6224952;28;20041;-75
2022/11/10 07:53:55;;;;;;;11.05;5.40;;;15.80;68.70;;;;;;6225029;28;20061;-75
2022/11/10 07:57:14;;;;;;;16.58;6.30;;;15.80;68.60;;;;;;6243884;28;20430;-75
2022/11/10 08:00:36;;;;;;;9.13;5.65;;;15.80;68.60;;;;;;6243616;28;20045;-75
2022/11/10 08:03:55;;;;;;;18.35;7.13;;;15.80;68.40;;;;;;6242197;28;20447;-75
2022/11/10 08:07:15;;;;;;;12.10;5.88;;;15.80;68.30;;;;;;6216664;28;20034;-75
2022/11/10 08:10:35;;;;;;;9.63;5.78;;;15.80;68.30;;;;;;6229006;28;20414;-74
2022/11/10 08:13:54;;;;;;;9.85;5.55;;;15.80;68.10;;;;;;6245676;28;20052;-75
2022/11/10 08:17:14;;;;;;;10.45;5.22;;;15.70;68.00;;;;;;6234024;28;20041;-75
2022/11/10 08:20:34;;;;;;;11.68;6.18;;;15.70;68.10;;;;;;6253551;28;20037;-75
2022/11/10 08:23:53;;;;;;;13.48;5.80;;;15.70;68.30;;;;;;6245858;28;20219;-75
2022/11/10 08:27:13;;;;;;;11.30;6.05;;;15.80;68.40;;;;;;6228972;28;20112;-75
2022/11/10 08:30:34;;;;;;;9.55;5.32;;;15.80;68.10;;;;;;6245270;28;20041;-74
2022/11/10 08:33:53;;;;;;;9.80;5.60;;;15.80;68.10;;;;;;6230995;28;20045;-74
2022/11/10 08:37:13;;;;;;;8.93;5.60;;;15.90;68.20;;;;;;6247747;28;20049;-75
2022/11/10 08:40:33;;;;;;;11.27;5.72;;;15.90;68.00;;;;;;6232768;28;20391;-75
2022/11/10 08:43:52;;;;;;;10.52;5.30;;;15.90;68.00;;;;;;6237936;28;20045;-75
2022/11/10 08:47:12;;;;;;;10.77;5.65;;;16.00;67.90;;;;;;6239546;28;20037;-76
2022/11/10 08:50:32;;;;;;;15.80;7.50;;;16.00;67.90;;;;;;6231927;28;20419;-75
2022/11/10 08:53:52;;;;;;;14.13;7.90;;;16.10;67.90;;;;;;6232494;28;20482;-75
2022/11/10 08:57:11;;;;;;;12.63;5.97;;;16.20;67.80;;;;;;6238415;28;20037;-75
2022/11/10 09:00:31;;;;;;;16.73;6.85;;;16.30;67.40;;;;;;6248909;28;20128;-74
2022/11/10 09:03:51;;;;;;;16.20;6.07;;;16.40;67.10;;;;;;6234224;28;20042;-75
2022/11/10 09:07:11;;;;;;;9.60;5.45;;;16.40;66.80;;;;;;6236262;28;20140;-74
2022/11/10 09:10:33;;;;;;;11.88;5.93;;;16.40;66.80;;;;;;6255624;28;20462;-75
2022/11/10 09:13:53;;;;;;;13.60;6.47;;;16.40;66.60;;;;;;6240635;28;20037;-75
2022/11/10 09:17:12;;;;;;;15.18;6.22;;;16.50;67.20;;;;;;6254580;28;20120;-75
2022/11/10 09:20:33;;;;;;;11.38;5.90;;;16.60;66.60;;;;;;6241046;28;20041;-74
2022/11/10 09:23:53;;;;;;;10.18;6.22;;;16.60;66.40;;;;;;6249678;28;20061;-74
2022/11/10 09:27:13;;;;;;;12.18;6.82;;;16.60;66.40;;;;;;6239540;28;20038;-74
2022/11/10 09:30:32;;;;;;;12.55;6.63;;;16.70;66.30;;;;;;6251499;28;20052;-75
2022/11/10 09:33:52;;;;;;;15.27;7.68;;;16.70;66.10;;;;;;6236417;28;20485;-75
2022/11/10 09:37:11;;;;;;;13.10;7.65;;;16.80;66.00;;;;;;6252540;28;20033;-75
2022/11/10 09:40:56;;;;;;;16.42;7.85;;;16.80;65.90;;;;;;6247394;28;20033;-75
2022/11/10 09:44:38;;;;;;;15.18;7.43;;;16.90;65.70;;;;;;6230791;28;20050;-75
2022/11/10 09:48:10;;;;;;;14.02;7.10;;;16.90;65.70;;;;;;6235810;28;20048;-74
2022/11/10 09:51:39;;;;;;;10.70;5.85;;;17.00;65.40;;;;;;6246802;28;20037;-75
2022/11/10 09:55:14;;;;;;;10.43;6.07;;;17.10;65.40;;;;;;6232946;28;20049;-75
2022/11/10 09:58:44;;;;;;;13.98;5.65;;;17.10;65.30;;;;;;6233009;28;20045;-75
2022/11/10 10:02:30;;;;;;;15.98;6.63;;;17.10;65.00;;;;;;6249624;28;20065;-75
2022/11/10 10:06:01;;;;;;;11.93;5.97;;;17.20;64.90;;;;;;6245935;28;20037;-75
2022/11/10 10:09:35;;;;;;;14.45;6.70;;;17.20;64.90;;;;;;6250442;28;20033;-75
2022/11/10 10:13:00;;;;;;;10.13;5.45;;;17.20;65.00;;;;;;6237402;28;20033;-74
2022/11/10 10:16:47;;;;;;;13.90;6.05;;;17.30;64.80;;;;;;6248745;28;20037;-75
2022/11/10 10:20:21;;;;;;;12.43;6.80;;;17.30;64.50;;;;;;6243248;28;20037;-76
2022/11/10 10:23:54;;;;;;;13.13;6.25;;;17.30;64.20;;;;;;6238406;28;20055;-75
2022/11/10 10:27:25;;;;;;;14.90;5.97;;;17.40;64.30;;;;;;6247732;28;20038;-74
2022/11/10 10:30:44;;;;;;;14.40;5.43;;;17.40;64.10;;;;;;6251036;28;20045;-74
2022/11/10 10:34:11;;;;;;;14.70;5.97;;;17.50;63.80;;;;;;6229377;28;20052;-75
2022/11/10 10:37:43;;;;;;;12.15;6.13;;;17.50;63.70;;;;;;6230469;28;21437;-75
2022/11/10 10:41:13;;;;;;;12.50;5.38;;;17.60;63.60;;;;;;6249667;28;20044;-75
2022/11/10 10:44:33;;;;;;;15.63;5.47;;;17.70;63.50;;;;;;6234487;28;20049;-75
2022/11/10 10:47:54;;;;;;;14.13;5.03;;;17.70;63.30;;;;;;6247187;28;20056;-75
2022/11/10 10:51:30;;;;;;;14.07;5.38;;;17.80;63.30;;;;;;6242970;28;20049;-74
2022/11/10 10:55:00;;;;;;;10.45;5.65;;;17.90;63.40;;;;;;6244298;28;20052;-74
2022/11/10 10:58:24;;;;;;;9.85;5.20;;;18.00;63.10;;;;;;6246868;28;20118;-74
2022/11/10 11:01:44;;;;;;;7.45;4.78;;;18.00;62.80;;;;;;6255257;28;20044;-75
2022/11/10 11:05:18;;;;;;;11.95;5.00;;;18.10;62.40;;;;;;6253150;28;20041;-75
2022/11/10 11:08:38;;;;;;;11.98;4.32;;;18.20;62.30;;;;;;6253816;28;20033;-76
2022/11/10 11:12:07;;;;;;;9.40;4.88;;;18.20;61.70;;;;;;6235180;28;20041;-75
2022/11/10 11:15:29;;;;;;;6.57;4.55;;;18.30;61.50;;;;;;6233370;28;20045;-75
2022/11/10 11:18:49;;;;;;;7.75;4.43;;;18.30;61.20;;;;;;6246429;28;20036;-75
2022/11/10 11:22:24;;;;;;;12.80;5.40;;;18.30;60.90;;;;;;6247529;28;20061;-75
2022/11/10 11:25:45;;;;;;;7.13;3.85;;;18.40;61.00;;;;;;6248977;28;20450;-74
2022/11/10 11:29:40;;;;;;;10.77;4.05;;;18.60;60.60;;;;;;6230549;28;20045;-74
2022/11/10 11:33:06;;;;;;;6.32;3.08;;;18.60;60.10;;;;;;6228723;28;20077;-75
2022/11/10 11:36:51;;;;;;;5.00;2.83;;;18.80;59.80;;;;;;6244213;28;20120;-75
2022/11/10 11:40:44;;;;;;;7.50;3.75;;;18.90;59.60;;;;;;6242629;28;20034;-75
2022/11/10 11:44:11;;;;;;;5.70;3.47;;;19.10;59.30;;;;;;6233130;28;20030;-74
2022/11/10 11:47:34;;;;;;;7.10;3.35;;;19.20;58.80;;;;;;6248431;28;20038;-75
2022/11/10 11:50:56;;;;;;;9.43;3.67;;;19.40;58.40;;;;;;6236318;28;20327;-76
2022/11/10 11:54:29;;;;;;;6.40;3.92;;;19.50;58.50;;;;;;6234565;28;20079;-75
2022/11/10 11:58:00;;;;;;;5.78;3.42;;;19.80;58.10;;;;;;6238655;28;20034;-76
2022/11/10 12:01:43;;;;;;;4.35;3.10;;;19.90;57.50;;;;;;6247153;28;20036;-76
2022/11/10 12:05:30;;;;;;;5.90;2.83;;;20.00;57.20;;;;;;6230021;28;20041;-74
2022/11/10 12:09:29;;;;;;;6.53;2.30;;;20.10;56.90;;;;;;6246162;28;20061;-76
2022/11/10 12:13:16;;;;;;;5.60;3.22;;;20.00;56.30;;;;;;6116235;29;20771;-75
2022/11/10 12:16:39;;;;;;;5.93;2.78;;;20.00;56.20;;;;;;6112425;29;20083;-75
2022/11/10 12:20:20;;;;;;;4.82;2.67;;;19.90;56.60;;;;;;6129933;29;20494;-75
2022/11/10 12:23:54;;;;;;;7.90;3.33;;;19.90;56.20;;;;;;6132888;29;20039;-75
2022/11/10 12:27:24;;;;;;;6.15;3.10;;;19.90;56.20;;;;;;6133045;29;20043;-75
2022/11/10 12:30:48;;;;;;;4.57;3.17;;;19.90;55.90;;;;;;6117651;29;20047;-75
2022/11/10 12:34:26;;;;;;;7.43;3.38;;;20.10;55.90;;;;;;6127837;29;20060;-75
2022/11/10 12:38:13;;;;;;;5.90;2.92;;;20.20;55.90;;;;;;6129519;29;20035;-75
2022/11/10 12:41:40;;;;;;;5.20;2.45;;;20.30;55.30;;;;;;6130249;29;20099;-76
2022/11/10 12:45:02;;;;;;;3.22;2.20;;;20.30;55.00;;;;;;6129958;29;20044;-76
2022/11/10 12:48:24;;;;;;;3.83;2.17;;;20.30;54.90;;;;;;6150924;28;20049;-74
2022/11/10 12:52:08;;;;;;;4.30;1.90;;;20.30;54.90;;;;;;6230874;28;20104;-74
2022/11/10 12:55:43;;;;;;;5.15;2.03;;;20.30;54.70;;;;;;6253820;28;20061;-75
2022/11/10 12:59:21;;;;;;;3.83;1.95;;;20.30;54.60;;;;;;6254851;28;20378;-75
2022/11/10 13:02:45;;;;;;;5.43;2.10;;;20.20;54.40;;;;;;6248224;28;20029;-76
2022/11/10 13:06:21;;;;;;;4.03;2.15;;;20.30;54.50;;;;;;6250064;28;20079;-75
2022/11/10 13:09:43;;;;;;;2.65;1.80;;;20.30;54.30;;;;;;6229384;28;20038;-75
2022/11/10 13:13:03;;;;;;;3.22;1.83;;;20.30;54.10;;;;;;6215003;28;20112;-75
2022/11/10 13:16:40;;;;;;;6.38;1.92;;;20.30;54.20;;;;;;6250207;28;20117;-75
2022/11/10 13:20:00;;;;;;;3.35;2.20;;;20.30;54.20;;;;;;6259677;28;20049;-75
2022/11/10 13:23:51;;;;;;;3.10;2.08;;;20.30;54.00;;;;;;6253467;28;20049;-76
2022/11/10 13:27:45;;;;;;;4.95;1.92;;;20.20;53.90;;;;;;6171887;28;20042;-77
2022/11/10 13:31:25;;;;;;;3.75;2.38;;;20.10;53.90;;;;;;6079135;29;20843;-75
2022/11/10 13:34:45;;;;;;;5.60;2.15;;;20.10;54.00;;;;;;6076682;29;20101;-75
2022/11/10 13:38:30;;;;;;;10.20;2.58;;;20.00;54.10;;;;;;6081071;29;20339;-75
2022/11/10 13:41:59;;;;;;;4.53;1.95;;;19.90;54.30;;;;;;6091391;29;20143;-76
2022/11/10 13:45:43;;;;;;;3.15;2.00;;;19.80;54.30;;;;;;6076521;29;20080;-75
2022/11/10 13:49:31;;;;;;;3.63;2.03;;;19.80;54.50;;;;;;6072450;29;20052;-74
2022/11/10 13:53:26;;;;;;;4.50;2.00;;;19.70;54.60;;;;;;6032363;29;20479;-74
2022/11/10 13:56:56;;;;;;;6.82;2.33;;;19.70;54.60;;;;;;6032633;29;20084;-75
2022/11/10 14:00:16;;;;;;;3.35;1.90;;;19.70;54.60;;;;;;6030220;29;20064;-75
2022/11/10 14:03:46;;;;;;;5.80;1.70;;;19.70;54.60;;;;;;6045790;29;20048;-76
2022/11/10 14:07:31;;;;;;;;;;;19.60;54.60;;;;;;6105208;28;20030;-75
2022/11/10 14:10:58;;;;;;;4.30;1.70;;;19.60;54.70;;;;;;6192271;28;19914;-75
2022/11/10 14:14:23;;;;;;;4.18;1.77;;;19.60;54.70;;;;;;6204436;28;20058;-74
2022/11/10 14:17:57;;;;;;;2.95;1.70;;;19.60;54.60;;;;;;6201654;28;20022;-75
2022/11/10 14:21:29;;;;;;;7.50;1.90;;;19.50;54.60;;;;;;6207907;28;20038;-76
2022/11/10 14:25:01;;;;;;;4.53;2.15;;;19.40;54.70;;;;;;6194516;28;20425;-76
2022/11/10 14:28:36;;;;;;;4.70;1.75;;;19.40;54.70;;;;;;6221137;28;20034;-74
2022/11/10 14:31:59;;;;;;;5.95;1.90;;;19.40;54.80;;;;;;6254814;28;20032;-75
2022/11/10 14:35:22;;;;;;;6.28;1.75;;;19.40;54.80;;;;;;6238155;28;20132;-75
2022/11/10 14:38:44;;;;;;;2.67;1.70;;;19.40;54.70;;;;;;6248106;28;20453;-74
2022/11/10 14:42:04;;;;;;;2.88;1.65;;;19.30;54.60;;;;;;6253179;28;20049;-74
2022/11/10 14:45:26;;;;;;;3.28;1.88;;;19.30;54.70;;;;;;6245477;28;20041;-75
2022/11/10 14:48:56;;;;;;;3.92;1.73;;;19.20;54.70;;;;;;6257905;28;20048;-76
2022/11/10 14:52:17;;;;;;;2.33;1.73;;;19.20;54.80;;;;;;6254670;28;20451;-74
2022/11/10 14:55:37;;;;;;;4.18;2.15;;;19.20;54.80;;;;;;6253427;28;20034;-75
2022/11/10 14:59:00;;;;;;;4.90;1.80;;;19.20;54.90;;;;;;6253459;28;20037;-75
2022/11/10 15:02:20;;;;;;;3.00;2.00;;;19.20;54.90;;;;;;6255505;28;20037;-74
2022/11/10 15:05:40;;;;;;;3.25;2.03;;;19.10;54.80;;;;;;6256477;28;20029;-75
2022/11/10 15:09:13;;;;;;;5.25;2.50;;;19.10;54.80;;;;;;6252437;28;20119;-75
2022/11/10 15:12:32;;;;;;;3.72;2.30;;;19.10;54.90;;;;;;6249992;28;20061;-76
2022/11/10 15:16:21;;;;;;;4.22;2.22;;;19.10;54.90;;;;;;6242268;28;20068;-74
2022/11/10 15:19:47;;;;;;;6.22;2.65;;;19.10;55.00;;;;;;6253887;28;20045;-76
2022/11/10 15:23:21;;;;;;;4.10;2.22;;;19.10;54.90;;;;;;6257707;28;20458;-74
2022/11/10 15:26:41;;;;;;;4.82;2.53;;;19.10;55.00;;;;;;6234089;28;20041;-74
2022/11/10 15:30:02;;;;;;;4.43;2.53;;;19.10;55.00;;;;;;6253766;28;20137;-76
2022/11/10 15:33:28;;;;;;;5.75;2.55;;;19.10;55.00;;;;;;6245198;28;20504;-75
2022/11/10 15:36:48;;;;;;;9.40;2.78;;;19.10;55.10;;;;;;6253330;28;20354;-73
2022/11/10 15:40:30;;;;;;;5.90;3.00;;;19.10;55.10;;;;;;6251695;28;20325;-75
2022/11/10 15:43:50;;;;;;;4.75;2.13;;;19.00;55.10;;;;;;6255888;28;20033;-75
2022/11/10 15:47:12;;;;;;;6.28;3.03;;;19.00;55.20;;;;;;6258593;28;20463;-75
2022/11/10 15:50:32;;;;;;;3.03;2.05;;;19.00;55.40;;;;;;6241540;28;20033;-76
2022/11/10 15:53:53;;;;;;;6.40;2.17;;;19.00;55.60;;;;;;6258006;28;20120;-75
2022/11/10 15:57:15;;;;;;;6.20;2.28;;;19.00;55.70;;;;;;6256844;28;20034;-75
2022/11/10 16:00:34;;;;;;;5.85;2.60;;;18.90;55.70;;;;;;6259639;28;20037;-75
2022/11/10 16:03:54;;;;;;;8.63;3.10;;;18.90;55.80;;;;;;6260570;28;20037;-75
2022/11/10 16:07:14;;;;;;;9.57;3.25;;;18.90;55.80;;;;;;6260021;28;20115;-74
2022/11/10 16:10:33;;;;;;;6.60;2.78;;;18.80;55.80;;;;;;6249912;28;20494;-76
2022/11/10 16:13:54;;;;;;;5.28;2.67;;;18.80;55.80;;;;;;6261656;28;20108;-76
2022/11/10 16:17:14;;;;;;;5.97;2.58;;;18.80;55.80;;;;;;6261086;28;20047;-76
2022/11/10 16:20:33;;;;;;;5.55;2.92;;;18.80;56.50;;;;;;6250253;28;20041;-75
2022/11/10 16:23:53;;;;;;;5.95;2.58;;;18.80;55.80;;;;;;6260904;28;20041;-73
2022/11/10 16:27:13;;;;;;;4.43;1.88;;;18.80;55.80;;;;;;6266307;28;20037;-75
2022/11/10 16:30:33;;;;;;;6.57;2.40;;;18.70;55.80;;;;;;6247996;28;20037;-75
2022/11/10 16:33:52;;;;;;;4.15;2.42;;;18.80;55.80;;;;;;6265676;28;20045;-75
2022/11/10 16:37:12;;;;;;;8.52;3.08;;;18.60;55.70;;;;;;6267381;28;20079;-75
2022/11/10 16:40:32;;;;;;;3.75;2.30;;;18.60;55.80;;;;;;6262319;28;20382;-74
2022/11/10 16:43:51;;;;;;;6.70;2.83;;;18.60;55.80;;;;;;6262260;28;20068;-75
2022/11/10 16:47:17;;;;;;;4.85;2.58;;;18.50;55.90;;;;;;6256899;28;20511;-76
2022/11/10 16:50:37;;;;;;;5.75;2.25;;;18.50;56.10;;;;;;6244807;28;20040;-74
2022/11/10 16:53:58;;;;;;;5.97;3.05;;;18.40;56.30;;;;;;6247278;28;20489;-74
2022/11/10 16:57:19;;;;;;;6.10;2.78;;;18.30;56.50;;;;;;6255977;28;20030;-75
2022/11/10 17:00:41;;;;;;;7.60;2.75;;;18.30;56.80;;;;;;6250718;28;20041;-74
2022/11/10 17:04:09;;;;;;;7.90;3.85;;;18.30;57.10;;;;;;6244348;28;20145;-75
2022/11/10 17:07:29;;;;;;;11.98;3.40;;;18.20;57.30;;;;;;6253004;28;20554;-75
2022/11/10 17:10:49;;;;;;;6.75;3.35;;;18.20;57.50;;;;;;6258525;28;20033;-75
2022/11/10 17:14:13;;;;;;;11.07;4.38;;;18.10;57.60;;;;;;6244231;28;20108;-76
2022/11/10 17:17:34;;;;;;;6.30;3.28;;;18.10;57.70;;;;;;6242540;28;20041;-75
2022/11/10 17:20:54;;;;;;;13.20;4.15;;;18.10;57.70;;;;;;6246144;28;20374;-76
2022/11/10 17:24:14;;;;;;;9.82;4.03;;;18.10;57.80;;;;;;6254293;28;20060;-75
2022/11/10 17:27:34;;;;;;;16.60;6.18;;;18.10;57.90;;;;;;6255027;28;20033;-75
2022/11/10 17:30:54;;;;;;;12.00;5.40;;;18.00;57.90;;;;;;6238890;28;20029;-75
2022/11/10 17:34:13;;;;;;;13.27;4.00;;;18.00;58.10;;;;;;6256371;28;20052;-75
2022/11/10 17:37:33;;;;;;;12.63;4.22;;;18.00;58.20;;;;;;6255152;28;20029;-74
2022/11/10 17:40:53;;;;;;;9.07;3.33;;;18.00;58.40;;;;;;6243927;28;20437;-75
2022/11/10 17:44:14;;;;;;;14.82;3.80;;;17.90;58.60;;;;;;6253693;28;20041;-74
2022/11/10 17:47:33;;;;;;;8.43;4.20;;;17.90;58.80;;;;;;6239664;28;20033;-74